sensor_id;sensor_type;location;lat;lon;timestamp;pressure;altitude;pressure_sealevel;temperature;humidity
38227;BME280;24026;49.446;8.576;2023-07-29T00:01:41;99980.16;;;22.06;69.84
38227;BME280;24026;49.446;8.576;2023-07-29T00:04:02;99979.38;;;22.06;69.75
38227;BME280;24026;49.446;8.576;2023-07-29T00:06:23;99987.50;;;22.06;69.72
38227;BME280;24026;49.446;8.576;2023-07-29T00:08:43;99977.78;;;22.05;69.91
38227;BME280;24026;49.446;8.576;2023-07-29T00:11:04;99982.09;;;22.06;69.53
38227;BME280;24026;49.446;8.576;2023-07-29T00:13:24;99982.09;;;22.06;69.76
38227;BME280;24026;49.446;8.576;2023-07-29T00:15:44;99979.72;;;22.04;69.55
38227;BME280;24026;49.446;8.576;2023-07-29T00:18:05;99973.16;;;22.05;69.70
38227;BME280;24026;49.446;8.576;2023-07-29T00:20:25;99973.16;;;22.05;69.83
38227;BME280;24026;49.446;8.576;2023-07-29T00:22:46;99973.50;;;22.04;69.61
38227;BME280;24026;49.446;8.576;2023-07-29T00:25:06;99966.97;;;22.05;69.65
38227;BME280;24026;49.446;8.576;2023-07-29T00:27:27;99970.00;;;22.03;69.85
38227;BME280;24026;49.446;8.576;2023-07-29T00:29:47;99961.88;;;22.03;69.79
38227;BME280;24026;49.446;8.576;2023-07-29T00:32:08;99959.16;;;22.03;69.68
38227;BME280;24026;49.446;8.576;2023-07-29T00:34:28;99953.75;;;22.03;69.78
38227;BME280;24026;49.446;8.576;2023-07-29T00:36:49;99958.38;;;22.02;69.74
38227;BME280;24026;49.446;8.576;2023-07-29T00:39:09;99942.16;;;22.02;69.76
38227;BME280;24026;49.446;8.576;2023-07-29T00:41:30;99950.28;;;22.02;69.85
38227;BME280;24026;49.446;8.576;2023-07-29T00:43:50;99950.28;;;22.02;69.53
38227;BME280;24026;49.446;8.576;2023-07-29T00:46:11;99940.56;;;22.01;69.49
38227;BME280;24026;49.446;8.576;2023-07-29T00:48:33;99932.44;;;22.01;69.64
38227;BME280;24026;49.446;8.576;2023-07-29T00:50:54;99930.56;;;22.02;69.64
38227;BME280;24026;49.446;8.576;2023-07-29T00:53:14;99924.31;;;22.01;69.73
38227;BME280;24026;49.446;8.576;2023-07-29T00:55:35;99929.75;;;22.01;69.76
38227;BME280;24026;49.446;8.576;2023-07-29T00:57:55;99927.84;;;22.02;69.65
38227;BME280;24026;49.446;8.576;2023-07-29T01:00:16;99921.63;;;22.01;69.64
38227;BME280;24026;49.446;8.576;2023-07-29T01:02:36;99930.88;;;22.00;69.57
38227;BME280;24026;49.446;8.576;2023-07-29T01:04:58;99922.75;;;22.00;69.43
38227;BME280;24026;49.446;8.576;2023-07-29T01:07:30;99929.28;;;21.99;69.84
38227;BME280;24026;49.446;8.576;2023-07-29T01:15:30;99929.16;;;21.96;69.85
38227;BME280;24026;49.446;8.576;2023-07-29T01:18:17;99926.00;;;21.94;69.75
38227;BME280;24026;49.446;8.576;2023-07-29T01:20:40;99929.16;;;21.96;69.53
38227;BME280;24026;49.446;8.576;2023-07-29T01:23:03;99931.53;;;21.97;69.61
38227;BME280;24026;49.446;8.576;2023-07-29T01:25:23;99928.81;;;21.97;69.63
38227;BME280;24026;49.446;8.576;2023-07-29T01:27:46;99918.00;;;21.97;69.63
38227;BME280;24026;49.446;8.576;2023-07-29T01:30:06;99915.31;;;21.97;69.60
38227;BME280;24026;49.446;8.576;2023-07-29T01:32:43;99910.53;;;21.94;69.34
38227;BME280;24026;49.446;8.576;2023-07-29T01:37:34;99910.22;;;21.96;69.67
38227;BME280;24026;49.446;8.576;2023-07-29T01:39:58;99907.19;;;21.97;69.71
38227;BME280;24026;49.446;8.576;2023-07-29T01:42:20;99914.84;;;21.95;69.53
38227;BME280;24026;49.446;8.576;2023-07-29T01:44:41;99918.34;;;21.96;69.51
38227;BME280;24026;49.446;8.576;2023-07-29T01:47:02;99903.22;;;21.95;69.56
38227;BME280;24026;49.446;8.576;2023-07-29T01:49:23;99902.44;;;21.94;69.70
38227;BME280;24026;49.446;8.576;2023-07-29T01:51:43;99908.63;;;21.95;69.58
38227;BME280;24026;49.446;8.576;2023-07-29T01:54:04;99905.13;;;21.94;69.75
38227;BME280;24026;49.446;8.576;2023-07-29T01:56:24;99902.44;;;21.94;69.67
38227;BME280;24026;49.446;8.576;2023-07-29T01:58:44;99899.72;;;21.94;69.68
38227;BME280;24026;49.446;8.576;2023-07-29T02:01:05;99894.31;;;21.94;69.48
38227;BME280;24026;49.446;8.576;2023-07-29T02:03:25;99896.22;;;21.94;69.55
38227;BME280;24026;49.446;8.576;2023-07-29T02:05:46;99899.72;;;21.94;69.56
38227;BME280;24026;49.446;8.576;2023-07-29T02:08:06;99898.13;;;21.93;69.54
38227;BME280;24026;49.446;8.576;2023-07-29T02:10:26;99893.53;;;21.94;69.47
38227;BME280;24026;49.446;8.576;2023-07-29T02:12:47;99884.59;;;21.93;69.25
38227;BME280;24026;49.446;8.576;2023-07-29T02:15:08;99888.13;;;21.94;69.30
38227;BME280;24026;49.446;8.576;2023-07-29T02:17:28;99889.22;;;21.93;69.33
38227;BME280;24026;49.446;8.576;2023-07-29T02:19:48;99888.44;;;21.92;69.63
38227;BME280;24026;49.446;8.576;2023-07-29T02:22:12;99890.34;;;21.92;69.37
38227;BME280;24026;49.446;8.576;2023-07-29T02:24:33;99884.94;;;21.92;69.45
38227;BME280;24026;49.446;8.576;2023-07-29T02:26:53;99891.94;;;21.93;69.49
38227;BME280;24026;49.446;8.576;2023-07-29T02:29:13;99888.44;;;21.92;69.43
38227;BME280;24026;49.446;8.576;2023-07-29T02:31:34;99890.34;;;21.92;69.39
38227;BME280;24026;49.446;8.576;2023-07-29T02:33:56;99890.34;;;21.92;69.43
38227;BME280;24026;49.446;8.576;2023-07-29T02:36:17;99888.78;;;21.91;69.37
38227;BME280;24026;49.446;8.576;2023-07-29T02:38:38;99893.03;;;21.92;69.51
38227;BME280;24026;49.446;8.576;2023-07-29T02:40:59;99896.88;;;21.91;69.41
38227;BME280;24026;49.446;8.576;2023-07-29T02:43:19;99899.59;;;21.91;69.49
38227;BME280;24026;49.446;8.576;2023-07-29T02:45:39;99893.41;;;21.90;69.30
38227;BME280;24026;49.446;8.576;2023-07-29T02:48:00;99890.69;;;21.90;69.65
38227;BME280;24026;49.446;8.576;2023-07-29T02:50:20;99885.28;;;21.90;69.13
38227;BME280;24026;49.446;8.576;2023-07-29T02:52:40;99886.41;;;21.89;69.53
38227;BME280;24026;49.446;8.576;2023-07-29T02:55:01;99889.09;;;21.89;69.21
38227;BME280;24026;49.446;8.576;2023-07-29T02:57:21;99878.28;;;21.89;69.69
38227;BME280;24026;49.446;8.576;2023-07-29T02:59:42;99874.78;;;21.89;69.35
38227;BME280;24026;49.446;8.576;2023-07-29T03:02:02;99870.50;;;21.88;69.38
38227;BME280;24026;49.446;8.576;2023-07-29T03:04:23;99873.97;;;21.88;69.39
38227;BME280;24026;49.446;8.576;2023-07-29T03:06:43;99867.78;;;21.88;69.48
38227;BME280;24026;49.446;8.576;2023-07-29T03:09:04;99863.50;;;21.87;69.25
38227;BME280;24026;49.446;8.576;2023-07-29T03:11:25;99867.78;;;21.88;69.23
38227;BME280;24026;49.446;8.576;2023-07-29T03:13:45;99864.31;;;21.87;69.37
38227;BME280;24026;49.446;8.576;2023-07-29T03:16:13;99862.38;;;21.88;69.12
38227;BME280;24026;49.446;8.576;2023-07-29T03:18:34;99857.31;;;21.86;69.46
38227;BME280;24026;49.446;8.576;2023-07-29T03:20:55;99855.38;;;21.87;69.51
38227;BME280;24026;49.446;8.576;2023-07-29T03:23:16;99853.81;;;21.86;69.44
38227;BME280;24026;49.446;8.576;2023-07-29T03:25:36;99855.72;;;21.85;69.24
38227;BME280;24026;49.446;8.576;2023-07-29T03:27:56;99854.94;;;21.84;69.06
38227;BME280;24026;49.446;8.576;2023-07-29T03:30:22;99861.13;;;21.85;69.24
38227;BME280;24026;49.446;8.576;2023-07-29T03:32:43;99848.72;;;21.84;69.18
38227;BME280;24026;49.446;8.576;2023-07-29T03:35:05;99848.72;;;21.84;69.41
38227;BME280;24026;49.446;8.576;2023-07-29T03:37:26;99842.53;;;21.83;69.22
38227;BME280;24026;49.446;8.576;2023-07-29T03:39:46;99839.03;;;21.83;69.00
38227;BME280;24026;49.446;8.576;2023-07-29T03:42:07;99830.91;;;21.83;69.18
38227;BME280;24026;49.446;8.576;2023-07-29T03:44:28;99829.00;;;21.83;69.14
38227;BME280;24026;49.446;8.576;2023-07-29T03:46:48;99815.81;;;21.82;69.02
38227;BME280;24026;49.446;8.576;2023-07-29T03:49:08;99811.97;;;21.83;68.98
38227;BME280;24026;49.446;8.576;2023-07-29T03:51:29;99806.91;;;21.81;69.26
38227;BME280;24026;49.446;8.576;2023-07-29T03:53:50;99826.63;;;21.82;69.15
38227;BME280;24026;49.446;8.576;2023-07-29T03:56:10;99832.06;;;21.82;69.35
38227;BME280;24026;49.446;8.576;2023-07-29T03:58:31;99835.53;;;21.82;69.32
38227;BME280;24026;49.446;8.576;2023-07-29T04:00:51;99833.94;;;21.81;69.45
38227;BME280;24026;49.446;8.576;2023-07-29T04:03:11;99833.16;;;21.81;69.08
38227;BME280;24026;49.446;8.576;2023-07-29T04:05:32;99828.53;;;21.81;68.90
38227;BME280;24026;49.446;8.576;2023-07-29T04:07:53;99823.13;;;21.81;68.76
38227;BME280;24026;49.446;8.576;2023-07-29T04:10:14;99822.34;;;21.81;69.12
38227;BME280;24026;49.446;8.576;2023-07-29T04:12:35;99838.56;;;21.81;68.99
38227;BME280;24026;49.446;8.576;2023-07-29T04:14:55;99841.28;;;21.81;69.05
38227;BME280;24026;49.446;8.576;2023-07-29T04:17:16;99843.97;;;21.81;68.81
38227;BME280;24026;49.446;8.576;2023-07-29T04:19:36;99840.50;;;21.80;69.05
38227;BME280;24026;49.446;8.576;2023-07-29T04:21:56;99838.56;;;21.81;69.04
38227;BME280;24026;49.446;8.576;2023-07-29T04:24:17;99837.78;;;21.80;68.73
38227;BME280;24026;49.446;8.576;2023-07-29T04:26:37;99842.38;;;21.80;68.91
38227;BME280;24026;49.446;8.576;2023-07-29T04:28:59;99837.78;;;21.80;68.96
38227;BME280;24026;49.446;8.576;2023-07-29T04:31:19;99843.19;;;21.80;69.02
38227;BME280;24026;49.446;8.576;2023-07-29T04:33:40;99847.78;;;21.80;69.21
38227;BME280;24026;49.446;8.576;2023-07-29T04:36:00;99845.09;;;21.80;68.77
38227;BME280;24026;49.446;8.576;2023-07-29T04:38:20;99845.91;;;21.80;69.02
38227;BME280;24026;49.446;8.576;2023-07-29T04:40:41;99847.78;;;21.80;68.72
38227;BME280;24026;49.446;8.576;2023-07-29T04:43:01;99848.59;;;21.80;68.97
38227;BME280;24026;49.446;8.576;2023-07-29T04:45:22;99860.53;;;21.79;68.90
38227;BME280;24026;49.446;8.576;2023-07-29T04:47:42;99864.81;;;21.80;68.83
38227;BME280;24026;49.446;8.576;2023-07-29T04:50:03;99872.13;;;21.80;68.95
38227;BME280;24026;49.446;8.576;2023-07-29T04:52:23;99864.03;;;21.80;68.74
38227;BME280;24026;49.446;8.576;2023-07-29T04:54:43;99855.13;;;21.79;68.95
38227;BME280;24026;49.446;8.576;2023-07-29T04:57:04;99861.31;;;21.80;68.69
38227;BME280;24026;49.446;8.576;2023-07-29T04:59:24;99859.75;;;21.79;68.77
38227;BME280;24026;49.446;8.576;2023-07-29T05:01:45;99863.25;;;21.79;68.83
38227;BME280;24026;49.446;8.576;2023-07-29T05:04:05;99872.13;;;21.80;68.87
38227;BME280;24026;49.446;8.576;2023-07-29T05:06:26;99875.97;;;21.79;68.64
38227;BME280;24026;49.446;8.576;2023-07-29T05:08:46;99867.84;;;21.79;69.04
38227;BME280;24026;49.446;8.576;2023-07-29T05:11:07;99847.34;;;21.78;68.68
38227;BME280;24026;49.446;8.576;2023-07-29T05:13:27;99847.34;;;21.78;69.10
38227;BME280;24026;49.446;8.576;2023-07-29T05:15:48;99852.75;;;21.78;68.92
38227;BME280;24026;49.446;8.576;2023-07-29T05:18:09;99844.63;;;21.78;68.72
38227;BME280;24026;49.446;8.576;2023-07-29T05:20:29;99841.16;;;21.77;69.11
38227;BME280;24026;49.446;8.576;2023-07-29T05:22:49;99844.97;;;21.76;68.96
38227;BME280;24026;49.446;8.576;2023-07-29T05:25:10;99854.66;;;21.77;68.74
38227;BME280;24026;49.446;8.576;2023-07-29T05:27:30;99850.38;;;21.76;68.73
38227;BME280;24026;49.446;8.576;2023-07-29T05:29:50;99865.47;;;21.77;69.00
38227;BME280;24026;49.446;8.576;2023-07-29T05:32:11;99877.41;;;21.76;68.74
38227;BME280;24026;49.446;8.576;2023-07-29T05:34:31;99889.03;;;21.77;68.96
38227;BME280;24026;49.446;8.576;2023-07-29T05:36:52;99886.34;;;21.77;69.01
38227;BME280;24026;49.446;8.576;2023-07-29T05:39:13;99863.88;;;21.76;69.12
38227;BME280;24026;49.446;8.576;2023-07-29T05:41:33;99858.47;;;21.76;69.06
38227;BME280;24026;49.446;8.576;2023-07-29T05:43:54;99872.00;;;21.76;69.18
38227;BME280;24026;49.446;8.576;2023-07-29T05:46:14;99869.28;;;21.76;69.04
38227;BME280;24026;49.446;8.576;2023-07-29T05:48:35;99880.13;;;21.76;69.00
38227;BME280;24026;49.446;8.576;2023-07-29T05:50:55;99880.94;;;21.77;69.18
38227;BME280;24026;49.446;8.576;2023-07-29T05:53:15;99889.03;;;21.77;69.11
38227;BME280;24026;49.446;8.576;2023-07-29T05:55:36;99883.97;;;21.75;68.92
38227;BME280;24026;49.446;8.576;2023-07-29T05:57:56;99878.56;;;21.75;69.14
38227;BME280;24026;49.446;8.576;2023-07-29T06:00:17;99879.34;;;21.76;69.00
38227;BME280;24026;49.446;8.576;2023-07-29T06:02:38;99888.22;;;21.76;69.26
38227;BME280;24026;49.446;8.576;2023-07-29T06:04:59;99880.94;;;21.77;69.24
38227;BME280;24026;49.446;8.576;2023-07-29T06:07:20;99876.63;;;21.76;69.33
38227;BME280;24026;49.446;8.576;2023-07-29T06:09:41;99865.81;;;21.76;69.30
38227;BME280;24026;49.446;8.576;2023-07-29T06:12:01;99878.56;;;21.75;68.95
38227;BME280;24026;49.446;8.576;2023-07-29T06:14:21;99865.81;;;21.76;69.46
38227;BME280;24026;49.446;8.576;2023-07-29T06:16:42;99859.28;;;21.77;69.30
38227;BME280;24026;49.446;8.576;2023-07-29T06:19:02;99863.88;;;21.76;69.50
38227;BME280;24026;49.446;8.576;2023-07-29T06:21:23;99862.00;;;21.77;69.43
38227;BME280;24026;49.446;8.576;2023-07-29T06:23:43;99863.56;;;21.78;69.58
38227;BME280;24026;49.446;8.576;2023-07-29T06:26:04;99865.47;;;21.77;69.37
38227;BME280;24026;49.446;8.576;2023-07-29T06:28:24;99863.56;;;21.78;69.20
38227;BME280;24026;49.446;8.576;2023-07-29T06:30:45;99858.16;;;21.78;69.57
38227;BME280;24026;49.446;8.576;2023-07-29T06:33:05;99865.16;;;21.79;69.37
38227;BME280;24026;49.446;8.576;2023-07-29T06:35:25;99875.97;;;21.79;69.48
38227;BME280;24026;49.446;8.576;2023-07-29T06:37:46;99881.06;;;21.80;69.52
38227;BME280;24026;49.446;8.576;2023-07-29T06:40:07;99879.13;;;21.81;69.52
38227;BME280;24026;49.446;8.576;2023-07-29T06:42:27;99876.44;;;21.81;69.22
38227;BME280;24026;49.446;8.576;2023-07-29T06:44:48;99889.63;;;21.82;69.29
38227;BME280;24026;49.446;8.576;2023-07-29T06:47:08;99891.56;;;21.82;69.37
38227;BME280;24026;49.446;8.576;2023-07-29T06:49:29;99891.56;;;21.82;69.29
38227;BME280;24026;49.446;8.576;2023-07-29T06:51:49;99886.13;;;21.82;69.27
38227;BME280;24026;49.446;8.576;2023-07-29T06:54:11;99886.59;;;21.84;69.69
38227;BME280;24026;49.446;8.576;2023-07-29T06:56:31;99889.31;;;21.84;69.45
38227;BME280;24026;49.446;8.576;2023-07-29T06:58:51;99888.16;;;21.85;69.70
38227;BME280;24026;49.446;8.576;2023-07-29T07:01:12;99888.97;;;21.86;69.44
38227;BME280;24026;49.446;8.576;2023-07-29T07:03:32;99891.69;;;21.86;69.60
38227;BME280;24026;49.446;8.576;2023-07-29T07:05:53;99887.06;;;21.86;69.37
38227;BME280;24026;49.446;8.576;2023-07-29T07:08:13;99896.75;;;21.87;69.38
38227;BME280;24026;49.446;8.576;2023-07-29T07:10:34;99905.66;;;21.88;69.67
38227;BME280;24026;49.446;8.576;2023-07-29T07:12:54;99908.03;;;21.89;69.60
38227;BME280;24026;49.446;8.576;2023-07-29T07:15:14;99894.50;;;21.89;69.64
38227;BME280;24026;49.446;8.576;2023-07-29T07:17:35;99902.31;;;21.91;69.76
38227;BME280;24026;49.446;8.576;2023-07-29T07:19:55;99899.59;;;21.91;69.30
38227;BME280;24026;49.446;8.576;2023-07-29T07:22:16;99908.16;;;21.93;69.38
38227;BME280;24026;49.446;8.576;2023-07-29T07:24:36;99900.84;;;21.93;69.34
38227;BME280;24026;49.446;8.576;2023-07-29T07:26:56;99888.91;;;21.94;69.47
38227;BME280;24026;49.446;8.576;2023-07-29T07:29:17;99892.38;;;21.95;69.05
38227;BME280;24026;49.446;8.576;2023-07-29T07:31:37;99886.66;;;21.96;69.38
38227;BME280;24026;49.446;8.576;2023-07-29T07:33:57;99883.63;;;21.98;69.26
38227;BME280;24026;49.446;8.576;2023-07-29T07:36:19;99897.59;;;22.00;69.52
38227;BME280;24026;49.446;8.576;2023-07-29T07:38:39;99903.50;;;22.02;69.07
38227;BME280;24026;49.446;8.576;2023-07-29T07:41:00;99900.47;;;22.04;69.03
38227;BME280;24026;49.446;8.576;2023-07-29T07:43:20;99908.22;;;22.05;69.19
38227;BME280;24026;49.446;8.576;2023-07-29T07:45:41;99898.22;;;22.06;69.22
38227;BME280;24026;49.446;8.576;2023-07-29T07:48:01;99903.28;;;22.07;69.25
38227;BME280;24026;49.446;8.576;2023-07-29T07:50:22;99897.56;;;22.09;69.39
38227;BME280;24026;49.446;8.576;2023-07-29T07:52:44;99901.81;;;22.10;69.18
38227;BME280;24026;49.446;8.576;2023-07-29T07:55:04;99903.09;;;22.12;69.19
38227;BME280;24026;49.446;8.576;2023-07-29T07:57:25;99900.06;;;22.14;69.57
38227;BME280;24026;49.446;8.576;2023-07-29T07:59:45;99900.50;;;22.16;69.54
38227;BME280;24026;49.446;8.576;2023-07-29T08:02:05;99888.56;;;22.17;69.31
38227;BME280;24026;49.446;8.576;2023-07-29T08:04:26;99895.56;;;22.18;69.42
38227;BME280;24026;49.446;8.576;2023-07-29T08:06:46;99895.22;;;22.19;69.35
38227;BME280;24026;49.446;8.576;2023-07-29T08:09:06;99905.72;;;22.21;69.38
38227;BME280;24026;49.446;8.576;2023-07-29T08:11:27;99897.28;;;22.23;69.31
38227;BME280;24026;49.446;8.576;2023-07-29T08:13:47;99900.44;;;22.25;69.25
38227;BME280;24026;49.446;8.576;2023-07-29T08:16:08;99898.50;;;22.25;69.47
38227;BME280;24026;49.446;8.576;2023-07-29T08:18:28;99890.88;;;22.27;69.43
38227;BME280;24026;49.446;8.576;2023-07-29T08:20:58;99897.88;;;22.28;69.02
38227;BME280;24026;49.446;8.576;2023-07-29T08:23:19;99895.66;;;22.30;69.36
38227;BME280;24026;49.446;8.576;2023-07-29T08:25:39;99888.31;;;22.31;69.09
38227;BME280;24026;49.446;8.576;2023-07-29T08:27:59;99901.53;;;22.32;69.14
38227;BME280;24026;49.446;8.576;2023-07-29T08:30:20;99890.69;;;22.32;69.31
38227;BME280;24026;49.446;8.576;2023-07-29T08:32:40;99895.78;;;22.34;69.11
38227;BME280;24026;49.446;8.576;2023-07-29T08:35:01;99901.19;;;22.34;69.17
38227;BME280;24026;49.446;8.576;2023-07-29T08:37:21;99912.81;;;22.34;69.18
38227;BME280;24026;49.446;8.576;2023-07-29T08:39:41;99915.19;;;22.36;69.28
38227;BME280;24026;49.446;8.576;2023-07-29T08:42:04;99916.78;;;22.37;68.93
38227;BME280;24026;49.446;8.576;2023-07-29T08:44:31;99915.97;;;22.36;69.03
38227;BME280;24026;49.446;8.576;2023-07-29T08:46:53;99907.06;;;22.36;69.15
38227;BME280;24026;49.446;8.576;2023-07-29T08:49:16;99897.81;;;22.37;68.96
38227;BME280;24026;49.446;8.576;2023-07-29T08:51:43;99902.81;;;22.26;69.13
38227;BME280;24026;49.446;8.576;2023-07-29T08:54:04;99918.88;;;22.31;69.25
38227;BME280;24026;49.446;8.576;2023-07-29T08:56:25;99920.13;;;22.34;69.37
38227;BME280;24026;49.446;8.576;2023-07-29T08:58:46;99931.41;;;22.36;69.19
38227;BME280;24026;49.446;8.576;2023-07-29T09:01:07;99930.31;;;22.37;69.00
38227;BME280;24026;49.446;8.576;2023-07-29T09:03:27;99941.13;;;22.37;69.33
38227;BME280;24026;49.446;8.576;2023-07-29T09:05:48;99938.06;;;22.38;69.49
38227;BME280;24026;49.446;8.576;2023-07-29T09:08:08;99946.19;;;22.38;69.09
38227;BME280;24026;49.446;8.576;2023-07-29T09:10:29;99942.38;;;22.39;69.23
38227;BME280;24026;49.446;8.576;2023-07-29T09:12:50;99946.69;;;22.41;69.14
38227;BME280;24026;49.446;8.576;2023-07-29T09:15:10;99947.47;;;22.41;69.06
38227;BME280;24026;49.446;8.576;2023-07-29T09:17:32;99938.22;;;22.42;69.02
38227;BME280;24026;49.446;8.576;2023-07-29T09:19:53;99933.59;;;22.43;69.17
38227;BME280;24026;49.446;8.576;2023-07-29T09:22:22;99936.31;;;22.43;69.23
38227;BME280;24026;49.446;8.576;2023-07-29T09:24:43;99932.47;;;22.44;69.56
38227;BME280;24026;49.446;8.576;2023-07-29T09:27:04;99930.22;;;22.46;69.31
38227;BME280;24026;49.446;8.576;2023-07-29T09:29:28;99924.47;;;22.47;69.56
38227;BME280;24026;49.446;8.576;2023-07-29T09:31:48;99914.44;;;22.48;69.45
38227;BME280;24026;49.446;8.576;2023-07-29T09:34:15;99908.69;;;22.49;70.04
38227;BME280;24026;49.446;8.576;2023-07-29T09:36:36;99904.06;;;22.50;69.80
38227;BME280;24026;49.446;8.576;2023-07-29T09:38:56;99906.44;;;22.51;69.92
38227;BME280;24026;49.446;8.576;2023-07-29T09:41:17;99903.06;;;22.54;69.92
38227;BME280;24026;49.446;8.576;2023-07-29T09:43:38;99895.72;;;22.55;70.06
38227;BME280;24026;49.446;8.576;2023-07-29T09:46:02;99898.91;;;22.57;69.80
38227;BME280;24026;49.446;8.576;2023-07-29T09:48:23;99901.63;;;22.57;70.11
38227;BME280;24026;49.446;8.576;2023-07-29T09:50:43;99900.47;;;22.58;70.09
38227;BME280;24026;49.446;8.576;2023-07-29T09:53:04;99898.22;;;22.60;69.96
38227;BME280;24026;49.446;8.576;2023-07-29T09:55:27;99896.00;;;22.62;69.95
38227;BME280;24026;49.446;8.576;2023-07-29T09:57:47;99895.31;;;22.65;69.79
38227;BME280;24026;49.446;8.576;2023-07-29T10:00:10;99891.16;;;22.68;69.53
38227;BME280;24026;49.446;8.576;2023-07-29T10:02:31;99892.41;;;22.70;69.55
38227;BME280;24026;49.446;8.576;2023-07-29T10:04:52;99896.34;;;22.73;69.12
38227;BME280;24026;49.446;8.576;2023-07-29T10:07:14;99891.38;;;22.75;69.30
38227;BME280;24026;49.446;8.576;2023-07-29T10:09:34;99900.75;;;22.78;69.13
38227;BME280;24026;49.446;8.576;2023-07-29T10:11:57;99898.50;;;22.80;69.34
38227;BME280;24026;49.446;8.576;2023-07-29T10:14:17;99902.47;;;22.82;69.22
38227;BME280;24026;49.446;8.576;2023-07-29T10:16:40;99907.56;;;22.84;69.11
38227;BME280;24026;49.446;8.576;2023-07-29T10:19:01;99894.47;;;22.86;69.04
38227;BME280;24026;49.446;8.576;2023-07-29T10:21:22;99901.09;;;22.88;69.17
38227;BME280;24026;49.446;8.576;2023-07-29T10:23:47;99896.16;;;22.90;68.78
38227;BME280;24026;49.446;8.576;2023-07-29T10:26:10;99893.56;;;22.94;68.84
38227;BME280;24026;49.446;8.576;2023-07-29T10:28:32;99893.69;;;22.98;68.93
38227;BME280;24026;49.446;8.576;2023-07-29T10:30:53;99896.06;;;22.99;68.53
38227;BME280;24026;49.446;8.576;2023-07-29T10:33:14;99893.03;;;23.01;68.70
38227;BME280;24026;49.446;8.576;2023-07-29T10:35:34;99895.06;;;23.04;68.31
38227;BME280;24026;49.446;8.576;2023-07-29T10:37:55;99896.31;;;23.06;68.24
38227;BME280;24026;49.446;8.576;2023-07-29T10:40:16;99896.75;;;23.08;68.29
38227;BME280;24026;49.446;8.576;2023-07-29T10:42:38;99894.16;;;23.12;68.18
38227;BME280;24026;49.446;8.576;2023-07-29T10:45:20;99886.50;;;23.14;68.16
38227;BME280;24026;49.446;8.576;2023-07-29T10:47:41;99881.53;;;23.16;68.00
38227;BME280;24026;49.446;8.576;2023-07-29T10:50:01;99877.34;;;23.19;67.86
38227;BME280;24026;49.446;8.576;2023-07-29T10:52:40;99865.38;;;23.20;67.80
38227;BME280;24026;49.446;8.576;2023-07-29T10:55:02;99874.44;;;23.24;67.64
38227;BME280;24026;49.446;8.576;2023-07-29T10:57:38;99865.16;;;23.25;67.70
38227;BME280;24026;49.446;8.576;2023-07-29T11:00:02;99866.06;;;23.29;67.49
38227;BME280;24026;49.446;8.576;2023-07-29T11:02:37;99866.97;;;23.33;67.27
38227;BME280;24026;49.446;8.576;2023-07-29T11:04:58;99863.91;;;23.35;67.38
38227;BME280;24026;49.446;8.576;2023-07-29T11:07:20;99865.63;;;23.39;67.03
38227;BME280;24026;49.446;8.576;2023-07-29T11:17:34;99876.78;;;23.50;66.19
38227;BME280;24026;49.446;8.576;2023-07-29T11:20:00;99874.97;;;23.54;66.03
38227;BME280;24026;49.446;8.576;2023-07-29T11:22:21;99872.72;;;23.56;65.84
38227;BME280;24026;49.446;8.576;2023-07-29T11:24:41;99873.16;;;23.58;65.72
38227;BME280;24026;49.446;8.576;2023-07-29T11:27:02;99868.63;;;23.62;65.58
38227;BME280;24026;49.446;8.576;2023-07-29T11:29:22;99877.22;;;23.64;65.33
38227;BME280;24026;49.446;8.576;2023-07-29T11:31:44;99881.16;;;23.67;65.32
38227;BME280;24026;49.446;8.576;2023-07-29T11:34:07;99876.19;;;23.69;65.28
38227;BME280;24026;49.446;8.576;2023-07-29T11:36:27;99865.00;;;23.71;65.11
38227;BME280;24026;49.446;8.576;2023-07-29T11:38:47;99866.22;;;23.73;64.88
38227;BME280;24026;49.446;8.576;2023-07-29T11:41:08;99862.84;;;23.76;64.83
38227;BME280;24026;49.446;8.576;2023-07-29T11:43:28;99857.84;;;23.78;64.62
38227;BME280;24026;49.446;8.576;2023-07-29T11:45:49;99857.50;;;23.80;64.52
38227;BME280;24026;49.446;8.576;2023-07-29T11:48:09;99860.34;;;23.83;64.42
38227;BME280;24026;49.446;8.576;2023-07-29T11:50:29;99855.38;;;23.85;64.44
38227;BME280;24026;49.446;8.576;2023-07-29T11:52:50;99856.97;;;23.86;64.24
38227;BME280;24026;49.446;8.576;2023-07-29T11:55:12;99851.97;;;23.89;64.16
38227;BME280;24026;49.446;8.576;2023-07-29T11:57:35;99861.34;;;23.91;63.96
38227;BME280;24026;49.446;8.576;2023-07-29T11:59:56;99853.66;;;23.93;64.00
38227;BME280;24026;49.446;8.576;2023-07-29T12:02:17;99860.34;;;23.96;63.94
38227;BME280;24026;49.446;8.576;2023-07-29T12:04:41;99861.56;;;23.98;63.38
38227;BME280;24026;49.446;8.576;2023-07-29T12:07:01;99850.34;;;24.00;63.59
38227;BME280;24026;49.446;8.576;2023-07-29T12:09:22;99857.03;;;24.02;63.19
38227;BME280;24026;49.446;8.576;2023-07-29T12:11:43;99862.13;;;24.04;62.99
38227;BME280;24026;49.446;8.576;2023-07-29T12:14:07;99855.19;;;24.07;62.99
38227;BME280;24026;49.446;8.576;2023-07-29T12:16:28;99852.13;;;24.08;62.58
38227;BME280;24026;49.446;8.576;2023-07-29T12:18:54;99858.81;;;24.11;62.58
38227;BME280;24026;49.446;8.576;2023-07-29T12:21:15;99852.22;;;24.12;62.31
38227;BME280;24026;49.446;8.576;2023-07-29T12:23:35;99853.47;;;24.14;62.28
38227;BME280;24026;49.446;8.576;2023-07-29T12:25:59;99862.06;;;24.16;62.16
38227;BME280;24026;49.446;8.576;2023-07-29T12:28:22;99848.47;;;24.16;62.30
38227;BME280;24026;49.446;8.576;2023-07-29T12:30:42;99850.06;;;24.17;62.10
38227;BME280;24026;49.446;8.576;2023-07-29T12:33:03;99853.22;;;24.19;62.04
38227;BME280;24026;49.446;8.576;2023-07-29T12:35:36;99850.94;;;24.21;61.66
38227;BME280;24026;49.446;8.576;2023-07-29T12:38:00;99858.75;;;24.23;61.73
38227;BME280;24026;49.446;8.576;2023-07-29T12:40:22;99851.81;;;24.26;61.33
38227;BME280;24026;49.446;8.576;2023-07-29T12:42:43;99861.56;;;24.27;61.69
38227;BME280;24026;49.446;8.576;2023-07-29T12:45:03;99856.56;;;24.29;61.29